createdAt,value
2022-12-24T00:01:54.135Z,1
2022-12-24T00:04:00.792Z,1
2022-12-24T00:05:57.648Z,1
2022-12-24T00:07:53.959Z,1
2022-12-24T00:09:54.122Z,1
2022-12-24T00:11:54.059Z,1
2022-12-24T00:13:54.084Z,1
2022-12-24T00:15:54.231Z,1
2022-12-24T00:17:54.156Z,1
2022-12-24T00:19:55.462Z,1
2022-12-24T00:21:54.218Z,1
2022-12-24T00:23:57.684Z,1
2022-12-24T00:25:54.287Z,1
2022-12-24T00:28:01.399Z,1
2022-12-24T00:29:54.263Z,1
2022-12-24T00:31:54.660Z,1
2022-12-24T00:33:57.612Z,1
2022-12-24T00:35:54.426Z,1
2022-12-24T00:37:57.683Z,1
2022-12-24T00:39:54.291Z,1
2022-12-24T00:41:54.066Z,1
2022-12-24T00:43:54.568Z,1
2022-12-24T00:45:54.245Z,1
2022-12-24T00:48:01.041Z,1
2022-12-24T00:49:54.557Z,1
2022-12-24T00:51:58.497Z,1
2022-12-24T00:53:54.191Z,1
2022-12-24T00:55:54.647Z,1
2022-12-24T00:57:57.069Z,1
2022-12-24T00:59:54.118Z,1
2022-12-24T01:03:54.823Z,1
2022-12-24T01:05:54.229Z,1
2022-12-24T01:07:55.942Z,1
2022-12-24T01:09:54.559Z,1
2022-12-24T01:11:55.007Z,1
2022-12-24T01:13:54.558Z,1
2022-12-24T01:15:57.530Z,1
2022-12-24T01:17:57.596Z,1
2022-12-24T01:19:54.155Z,1
2022-12-24T01:21:54.545Z,1
2022-12-24T01:23:55.408Z,1
2022-12-24T01:25:54.181Z,1
2022-12-24T01:27:51.700Z,1
2022-12-24T01:29:54.316Z,1
2022-12-24T01:31:54.133Z,1
2022-12-24T01:33:54.202Z,1
2022-12-24T01:35:54.474Z,1
2022-12-24T01:37:54.466Z,1
2022-12-24T01:39:58.651Z,1
2022-12-24T01:41:54.230Z,1
2022-12-24T01:43:57.499Z,1
2022-12-24T01:45:54.313Z,1
2022-12-24T01:47:54.577Z,1
2022-12-24T01:49:53.999Z,1
2022-12-24T01:51:54.232Z,1
2022-12-24T01:53:54.558Z,1
2022-12-24T01:56:00.726Z,1
2022-12-24T01:57:54.231Z,1
2022-12-24T01:59:54.155Z,1
2022-12-24T02:02:00.855Z,1
2022-12-24T02:03:54.396Z,1
2022-12-24T02:05:55.482Z,1
2022-12-24T02:07:54.110Z,1
2022-12-24T02:09:54.952Z,1
2022-12-24T02:11:57.407Z,1
2022-12-24T02:13:54.173Z,1
2022-12-24T02:17:57.550Z,1
2022-12-24T02:19:54.129Z,1
2022-12-24T02:21:58.535Z,1
2022-12-24T02:23:57.519Z,1
2022-12-24T02:25:57.500Z,1
2022-12-24T02:27:57.689Z,1
2022-12-24T02:30:00.803Z,1
2022-12-24T02:31:53.982Z,1
2022-12-24T02:33:54.268Z,1
2022-12-24T02:35:57.447Z,1
2022-12-24T02:37:57.928Z,1
2022-12-24T02:39:54.105Z,1
2022-12-24T02:41:54.112Z,1
2022-12-24T02:43:54.548Z,1
2022-12-24T02:45:59.322Z,1
2022-12-24T02:47:57.480Z,1
2022-12-24T02:49:57.143Z,1
2022-12-24T02:51:54.117Z,1
2022-12-24T02:54:04.305Z,1
2022-12-24T02:55:54.659Z,1
2022-12-24T02:57:53.970Z,1
2022-12-24T02:59:57.167Z,1
2022-12-24T03:01:57.846Z,1
2022-12-24T03:03:57.260Z,1
2022-12-24T03:05:54.043Z,1
2022-12-24T03:07:57.334Z,1
2022-12-24T03:09:54.323Z,1
2022-12-24T03:11:54.188Z,1
2022-12-24T03:13:54.256Z,1
2022-12-24T03:15:55.771Z,1
2022-12-24T03:18:00.738Z,1
2022-12-24T03:19:57.159Z,1
2022-12-24T03:21:54.543Z,1
2022-12-24T03:23:54.649Z,1
2022-12-24T03:26:00.693Z,1
2022-12-24T03:27:54.365Z,1
2022-12-24T03:29:54.069Z,1
2022-12-24T03:31:57.788Z,1
2022-12-24T03:33:54.467Z,1
2022-12-24T03:35:55.406Z,1
2022-12-24T03:39:54.185Z,1
2022-12-24T03:41:54.020Z,1
2022-12-24T03:43:58.319Z,1
2022-12-24T03:46:00.959Z,1
2022-12-24T03:47:57.421Z,1
2022-12-24T03:49:54.289Z,1
2022-12-24T03:51:55.042Z,1
2022-12-24T03:53:54.209Z,1
2022-12-24T03:55:57.726Z,1
2022-12-24T03:58:00.864Z,1
2022-12-24T03:59:54.167Z,1
2022-12-24T04:01:54.255Z,1
2022-12-24T04:03:58.663Z,1
2022-12-24T04:05:57.591Z,1
2022-12-24T04:08:00.855Z,1
2022-12-24T04:09:54.540Z,1
2022-12-24T04:12:30.447Z,1
2022-12-24T04:14:33.796Z,1
2022-12-24T04:16:29.823Z,1
2022-12-24T04:18:29.382Z,1
2022-12-24T04:20:29.305Z,1
2022-12-24T04:22:31.200Z,1
2022-12-24T04:24:29.239Z,1
2022-12-24T04:26:29.598Z,1
2022-12-24T04:28:29.374Z,1
2022-12-24T04:30:29.420Z,1
2022-12-24T04:32:29.172Z,1
2022-12-24T04:34:32.953Z,1
2022-12-24T04:38:29.407Z,1
2022-12-24T04:40:32.804Z,1
2022-12-24T04:42:28.966Z,1
2022-12-24T04:44:29.244Z,1
2022-12-24T04:46:29.638Z,1
2022-12-24T04:48:29.459Z,1
2022-12-24T04:50:32.973Z,1
2022-12-24T04:52:29.779Z,1
2022-12-24T04:54:29.258Z,1
2022-12-24T04:56:29.419Z,1
2022-12-24T04:58:32.927Z,1
2022-12-24T05:00:29.255Z,1
2022-12-24T05:02:29.131Z,1
2022-12-24T05:04:32.717Z,1
2022-12-24T05:06:29.262Z,1
2022-12-24T05:08:29.495Z,1
2022-12-24T05:10:29.323Z,1
2022-12-24T05:12:36.247Z,1
2022-12-24T05:14:32.836Z,1
2022-12-24T05:16:29.558Z,1
2022-12-24T05:18:31.448Z,1
2022-12-24T05:20:29.566Z,1
2022-12-24T05:22:29.099Z,1
2022-12-24T05:24:32.968Z,1
2022-12-24T05:26:29.629Z,1
2022-12-24T05:28:32.554Z,1
2022-12-24T05:30:29.437Z,1
2022-12-24T05:32:33.114Z,1
2022-12-24T05:34:29.405Z,1
2022-12-24T05:36:33.721Z,1
2022-12-24T05:38:29.441Z,1
2022-12-24T05:40:33.493Z,1
2022-12-24T05:42:29.435Z,1
2022-12-24T05:44:29.578Z,1
2022-12-24T05:46:29.460Z,1
2022-12-24T05:48:29.433Z,1
2022-12-24T05:50:29.447Z,1
2022-12-24T05:52:35.897Z,1
2022-12-24T05:54:29.411Z,1
2022-12-24T05:56:29.478Z,1
2022-12-24T05:58:29.517Z,1
2022-12-24T06:00:29.382Z,1
2022-12-24T06:02:29.361Z,1
2022-12-24T06:04:36.165Z,1
2022-12-24T06:06:29.420Z,1
2022-12-24T06:08:36.166Z,1
2022-12-24T06:10:26.605Z,1
2022-12-24T06:12:31.079Z,1
2022-12-24T06:14:29.668Z,1
2022-12-24T06:16:29.419Z,1
2022-12-24T06:18:33.028Z,0
2022-12-24T06:20:32.974Z,0
2022-12-24T06:22:29.421Z,0
2022-12-24T06:24:32.840Z,0
2022-12-24T06:26:29.487Z,0.1
2022-12-24T06:28:29.511Z,0.1
2022-12-24T06:30:36.947Z,0.2
2022-12-24T06:32:32.498Z,0.3
2022-12-24T06:34:29.191Z,0.4
2022-12-24T06:36:29.359Z,0.5
2022-12-24T06:38:32.142Z,0.8
2022-12-24T06:40:29.374Z,1.3
2022-12-24T06:42:32.596Z,2
2022-12-24T06:46:32.730Z,3.7
2022-12-24T06:48:29.510Z,4.7
2022-12-24T06:50:29.432Z,6
2022-12-24T06:52:29.144Z,8.2
2022-12-24T06:54:33.560Z,10.5
2022-12-24T06:56:29.409Z,12.8
2022-12-24T06:58:32.627Z,16.4
2022-12-24T07:00:36.264Z,20.1
2022-12-24T07:02:29.361Z,22.2
2022-12-24T07:04:33.077Z,25.8
2022-12-24T07:06:29.329Z,30
2022-12-24T07:08:33.710Z,34.8
2022-12-24T07:10:29.871Z,40.4
2022-12-24T07:12:29.567Z,49.4
2022-12-24T07:14:36.000Z,63.4
2022-12-24T07:16:29.375Z,77.5
2022-12-24T07:18:31.970Z,85.6
2022-12-24T07:20:29.546Z,90
2022-12-24T07:22:29.409Z,104.6
2022-12-24T07:24:29.400Z,121.5
2022-12-24T07:26:31.484Z,134.3
2022-12-24T07:28:29.792Z,156
2022-12-24T07:30:29.353Z,181.3
2022-12-24T07:32:33.572Z,200.3
2022-12-24T07:34:29.562Z,221.4
2022-12-24T07:36:29.451Z,244.7
2022-12-24T07:38:29.672Z,257.2
2022-12-24T07:40:35.885Z,257.2
2022-12-24T07:42:32.785Z,270.4
2022-12-24T07:44:29.458Z,298.9
2022-12-24T07:46:29.491Z,347.2
2022-12-24T07:48:29.441Z,424.1
2022-12-24T07:50:29.404Z,445.9
2022-12-24T07:52:29.373Z,445.9
2022-12-24T07:54:31.162Z,468.7
2022-12-24T07:56:29.292Z,518
2022-12-24T07:58:32.704Z,572.5
2022-12-24T08:00:36.138Z,544.6
2022-12-24T08:02:32.617Z,544.6
2022-12-24T08:04:29.737Z,601.8
2022-12-24T08:06:29.609Z,632.7
2022-12-24T08:08:33.788Z,632.7
2022-12-24T08:10:29.322Z,665.1
2022-12-24T08:12:32.749Z,665.1
2022-12-24T08:14:33.009Z,632.7
2022-12-24T08:16:29.635Z,601.8
2022-12-24T08:18:32.962Z,601.8
2022-12-24T08:20:29.478Z,665.1
2022-12-24T08:22:29.378Z,772.8
2022-12-24T08:24:33.094Z,943.9
2022-12-24T08:26:32.581Z,1212
2022-12-24T08:28:32.961Z,1408.1
2022-12-24T08:30:32.719Z,1480.3
2022-12-24T08:32:32.591Z,1636
2022-12-24T08:34:29.538Z,1719.9
2022-12-24T08:36:29.493Z,1719.9
2022-12-24T08:38:29.393Z,1636
2022-12-24T08:40:29.344Z,1636
2022-12-24T08:42:33.547Z,1808
2022-12-24T08:44:32.889Z,1998.2
2022-12-24T08:46:29.486Z,2440.6
2022-12-24T08:48:29.417Z,2440.6
2022-12-24T08:50:32.607Z,2208.3
2022-12-24T08:52:29.441Z,1998.2
2022-12-24T08:54:29.540Z,2100.6
2022-12-24T08:56:32.611Z,2208.3
2022-12-24T08:58:29.368Z,2440.6
2022-12-24T09:00:36.125Z,2565.7
2022-12-24T09:02:29.528Z,2697.3
2022-12-24T09:04:29.534Z,2835.6
2022-12-24T09:06:29.395Z,2981
2022-12-24T09:08:29.507Z,2835.6
2022-12-24T09:10:29.633Z,2440.6
2022-12-24T09:12:29.554Z,2440.6
2022-12-24T09:14:29.413Z,2565.7
2022-12-24T09:16:35.390Z,2697.3
2022-12-24T09:18:29.401Z,3133.8
2022-12-24T09:20:36.115Z,3294.5
2022-12-24T09:22:29.590Z,2697.3
2022-12-24T09:24:32.745Z,3463.4
2022-12-24T09:26:29.521Z,2321.6
2022-12-24T09:28:29.577Z,3133.8
2022-12-24T09:30:32.999Z,3641
2022-12-24T09:32:32.848Z,2565.7
2022-12-24T09:34:30.460Z,2208.3
2022-12-24T09:36:37.148Z,2440.6
2022-12-24T09:38:29.431Z,2697.3
2022-12-24T09:40:36.130Z,2697.3
2022-12-24T09:42:29.454Z,2208.3
2022-12-24T09:44:29.368Z,2440.6
2022-12-24T09:46:26.824Z,2440.6
2022-12-24T09:48:29.328Z,3463.4
2022-12-24T09:50:29.541Z,4023.9
2022-12-24T09:52:29.796Z,5166.8
2022-12-24T09:54:29.425Z,6974.4
2022-12-24T09:56:36.192Z,13359.7
2022-12-24T09:58:29.424Z,11498.8
2022-12-24T10:00:31.214Z,11498.8
2022-12-24T10:02:29.587Z,26903.2
2022-12-24T10:04:29.467Z,46630
2022-12-24T10:06:30.810Z,49020.8
2022-12-24T10:08:29.393Z,42192.6
2022-12-24T10:10:33.463Z,44355.9
2022-12-24T10:12:29.359Z,59874.1
2022-12-24T10:14:29.575Z,54176.4
2022-12-24T10:16:36.146Z,46630
2022-12-24T10:18:29.532Z,44355.9
2022-12-24T10:20:31.191Z,38177.4
2022-12-24T10:22:29.343Z,42192.6
2022-12-24T10:24:33.433Z,40134.8
2022-12-24T10:26:29.475Z,40134.8
2022-12-24T10:28:29.588Z,59874.1
2022-12-24T10:30:32.845Z,54176.4
2022-12-24T10:32:29.463Z,54176.4
2022-12-24T10:34:29.460Z,59874.1
2022-12-24T10:36:34.077Z,69563.8
2022-12-24T10:38:33.086Z,66171.2
2022-12-24T10:40:29.529Z,69563.8
2022-12-24T10:42:29.351Z,54176.4
2022-12-24T10:44:29.803Z,69563.8
2022-12-24T10:46:33.255Z,69563.8
2022-12-24T10:48:33.054Z,69563.8
2022-12-24T10:50:36.089Z,69563.8
2022-12-24T10:52:33.008Z,69563.8
2022-12-24T10:54:29.693Z,69563.8
2022-12-24T10:56:29.446Z,69563.8
2022-12-24T10:58:39.628Z,69563.8
2022-12-24T11:00:35.433Z,69563.8
2022-12-24T11:02:33.100Z,69563.8
2022-12-24T11:04:29.385Z,69563.8
2022-12-24T11:06:36.079Z,69563.8
2022-12-24T11:08:36.076Z,73130.4
2022-12-24T11:10:32.894Z,46630
2022-12-24T11:12:29.663Z,56954
2022-12-24T11:14:29.361Z,73130.4
2022-12-24T11:16:33.956Z,59874.1
2022-12-24T11:18:29.657Z,73130.4
2022-12-24T11:20:29.497Z,76879.9
2022-12-24T11:22:29.471Z,66171.2
2022-12-24T11:24:35.756Z,46630
2022-12-24T11:26:29.462Z,28282.5
2022-12-24T11:28:29.733Z,14764.8
2022-12-24T11:30:35.427Z,9897.1
2022-12-24T11:32:29.856Z,13359.7
2022-12-24T11:34:29.495Z,12708.2
2022-12-24T11:36:29.501Z,14764.8
2022-12-24T11:38:30.767Z,15521.8
2022-12-24T11:40:29.685Z,14764.8
2022-12-24T11:42:31.200Z,16317.6
2022-12-24T11:44:29.547Z,18958.4
2022-12-24T11:46:33.981Z,69563.8
2022-12-24T11:48:29.466Z,25591.1
2022-12-24T11:50:29.785Z,28282.5
2022-12-24T11:52:29.477Z,29732.6
2022-12-24T11:54:29.551Z,34544.4
2022-12-24T11:56:32.302Z,62944
2022-12-24T11:58:29.475Z,46630
2022-12-24T12:02:29.901Z,26903.2
2022-12-24T12:04:32.831Z,51534.2
2022-12-24T12:06:26.798Z,22026.5
2022-12-24T12:08:33.952Z,12708.2
2022-12-24T12:10:29.936Z,12708.2
2022-12-24T12:12:36.185Z,10938
2022-12-24T12:14:29.646Z,31257
2022-12-24T12:16:29.732Z,25591.1
2022-12-24T12:18:32.612Z,25591.1
2022-12-24T12:20:29.514Z,32859.6
2022-12-24T12:22:33.007Z,54176.4
2022-12-24T12:24:32.209Z,62944
2022-12-24T12:26:32.794Z,25591.1
2022-12-24T12:28:29.741Z,46630
2022-12-24T12:30:29.632Z,28282.5
2022-12-24T12:32:33.758Z,23155.8
2022-12-24T12:34:29.382Z,13359.7
2022-12-24T12:36:29.441Z,9897.1
2022-12-24T12:38:34.348Z,7707.9
2022-12-24T12:40:29.501Z,49020.8
2022-12-24T12:42:29.744Z,9897.1
2022-12-24T12:44:32.924Z,7332
2022-12-24T12:46:29.716Z,10938
2022-12-24T12:48:36.138Z,8955.3
2022-12-24T12:50:29.566Z,15521.8
2022-12-24T12:52:36.204Z,66171.2
2022-12-24T12:54:29.512Z,56954
2022-12-24T12:56:33.888Z,28282.5
2022-12-24T12:58:29.467Z,54176.4
2022-12-24T13:00:29.645Z,6974.4
2022-12-24T13:02:29.674Z,5166.8
2022-12-24T13:04:31.304Z,4230.2
2022-12-24T13:06:29.513Z,2835.6
2022-12-24T13:08:33.148Z,1998.2
2022-12-24T13:10:32.939Z,2565.7
2022-12-24T13:12:35.775Z,3294.5
2022-12-24T13:14:32.768Z,1808
2022-12-24T13:16:29.585Z,1480.3
2022-12-24T13:18:32.797Z,1556.2
2022-12-24T13:20:29.681Z,1556.2
2022-12-24T13:22:29.382Z,1556.2
2022-12-24T13:24:29.638Z,1480.3
2022-12-24T13:26:33.019Z,1480.3
2022-12-24T13:28:29.626Z,1808
2022-12-24T13:30:30.038Z,5166.8
2022-12-24T13:32:39.880Z,12708.2
2022-12-24T13:34:29.747Z,8955.3
2022-12-24T13:36:30.911Z,9414.4
2022-12-24T13:38:29.698Z,6634.2
2022-12-24T13:40:34.427Z,6634.2
2022-12-24T13:42:29.421Z,5431.7
2022-12-24T13:44:29.641Z,4675.1
2022-12-24T13:46:29.579Z,4675.1
2022-12-24T13:48:32.877Z,4230.2
2022-12-24T13:50:29.847Z,3294.5
2022-12-24T13:52:31.233Z,2440.6
2022-12-24T13:54:29.578Z,2697.3
2022-12-24T13:56:29.641Z,4023.9
2022-12-24T13:58:29.614Z,4447.1
2022-12-24T14:00:29.584Z,4675.1
2022-12-24T14:02:29.638Z,3463.4
2022-12-24T14:04:31.195Z,2697.3
2022-12-24T14:06:32.708Z,2440.6
2022-12-24T14:08:29.527Z,2100.6
2022-12-24T14:10:36.211Z,1900.7
2022-12-24T14:12:33.191Z,1636
2022-12-24T14:14:29.666Z,1636
2022-12-24T14:16:29.486Z,1636
2022-12-24T14:18:29.550Z,1998.2
2022-12-24T14:20:31.384Z,2208.3
2022-12-24T14:24:33.113Z,1480.3
2022-12-24T14:26:33.102Z,1212
2022-12-24T14:28:29.748Z,1152.9
2022-12-24T14:30:29.662Z,1274.1
2022-12-24T14:32:36.720Z,1636
2022-12-24T14:34:32.856Z,2100.6
2022-12-24T14:36:29.677Z,2100.6
2022-12-24T14:38:29.573Z,1719.9
2022-12-24T14:40:29.575Z,1408.1
2022-12-24T14:42:33.113Z,1408.1
2022-12-24T14:44:35.397Z,1408.1
2022-12-24T14:46:33.669Z,1408.1
2022-12-24T14:48:35.894Z,1043.1
2022-12-24T14:50:29.569Z,735.1
2022-12-24T14:53:03.219Z,544.6
2022-12-24T14:54:29.449Z,424.1
2022-12-24T14:56:29.587Z,347.2
2022-12-24T14:58:34.964Z,383.8
2022-12-24T15:00:32.135Z,424.1
2022-12-24T15:02:29.733Z,403.4
2022-12-24T15:04:29.749Z,365
2022-12-24T15:06:29.524Z,314.2
2022-12-24T15:08:33.574Z,270.4
2022-12-24T15:10:29.465Z,232.8
2022-12-24T15:12:29.559Z,190.6
2022-12-24T15:14:31.320Z,164
2022-12-24T15:16:29.580Z,141.2
2022-12-24T15:18:29.601Z,115.6
2022-12-24T15:20:29.632Z,90
2022-12-24T15:22:29.688Z,70.1
2022-12-24T15:24:29.566Z,60.3
2022-12-24T15:26:29.669Z,49.4
2022-12-24T15:28:29.726Z,36.6
2022-12-24T15:30:35.876Z,28.5
2022-12-24T15:32:29.705Z,24.5
2022-12-24T15:34:34.620Z,21.1
2022-12-24T15:36:29.449Z,16.4
2022-12-24T15:38:35.747Z,12.2
2022-12-24T15:40:35.763Z,10
2022-12-24T15:42:32.879Z,7.8
2022-12-24T15:44:33.124Z,5.5
2022-12-24T15:46:32.946Z,3.9
2022-12-24T15:48:29.481Z,2.7
2022-12-24T15:50:29.621Z,2
2022-12-24T15:54:29.419Z,1.1
2022-12-24T15:56:29.546Z,0.8
2022-12-24T15:58:32.892Z,0.5
2022-12-24T16:00:29.537Z,0.4
2022-12-24T16:02:32.792Z,0.3
2022-12-24T16:04:29.829Z,0.2
2022-12-24T16:06:34.456Z,0.2
2022-12-24T16:08:32.734Z,0.1
2022-12-24T16:10:29.800Z,0.1
2022-12-24T16:12:36.322Z,0.1
2022-12-24T16:14:29.430Z,0
2022-12-24T16:16:33.072Z,0
2022-12-24T16:18:29.882Z,0
2022-12-24T16:20:29.471Z,1
2022-12-24T16:22:29.489Z,1
2022-12-24T16:24:37.264Z,1
2022-12-24T16:26:29.565Z,1
2022-12-24T16:28:29.493Z,1
2022-12-24T16:30:30.924Z,1
2022-12-24T16:32:29.501Z,1
2022-12-24T16:34:29.588Z,1
2022-12-24T16:36:29.570Z,1
2022-12-24T16:38:35.322Z,1
2022-12-24T16:40:33.160Z,1
2022-12-24T16:42:29.547Z,1
2022-12-24T16:44:29.467Z,1
2022-12-24T16:46:29.533Z,1
2022-12-24T16:48:29.676Z,1
2022-12-24T16:50:29.592Z,1
2022-12-24T16:52:35.917Z,1
2022-12-24T16:54:54.767Z,1
2022-12-24T16:56:50.443Z,1
2022-12-24T17:00:50.218Z,1
2022-12-24T17:02:50.193Z,1
2022-12-24T17:04:46.739Z,1
2022-12-24T17:06:46.653Z,1
2022-12-24T17:08:50.430Z,1
2022-12-24T17:10:49.991Z,1
2022-12-24T17:12:46.846Z,1
2022-12-24T17:14:47.244Z,1
2022-12-24T17:16:47.039Z,1
2022-12-24T17:18:50.498Z,1
2022-12-24T17:20:46.733Z,1
2022-12-24T17:22:50.442Z,1
2022-12-24T17:24:53.262Z,1
2022-12-24T17:26:46.762Z,1
2022-12-24T17:28:46.919Z,1
2022-12-24T17:30:50.545Z,1
2022-12-24T17:34:49.915Z,1
2022-12-24T17:36:46.791Z,1
2022-12-24T17:38:46.965Z,1
2022-12-24T17:40:46.746Z,1
2022-12-24T17:42:47.180Z,1
2022-12-24T17:44:46.912Z,1
2022-12-24T17:46:50.543Z,1
2022-12-24T17:48:46.854Z,1
2022-12-24T17:50:47.164Z,1
2022-12-24T17:52:46.856Z,1
2022-12-24T17:54:47.102Z,1
2022-12-24T17:56:50.477Z,1
2022-12-24T17:58:46.895Z,1
2022-12-24T18:00:46.869Z,1
2022-12-24T18:02:47.134Z,1
2022-12-24T18:04:47.118Z,1
2022-12-24T18:06:49.452Z,1
2022-12-24T18:08:46.844Z,1
2022-12-24T18:10:47.171Z,1
2022-12-24T18:12:46.104Z,1
2022-12-24T18:14:46.838Z,1
2022-12-24T18:16:47.031Z,1
2022-12-24T18:18:46.942Z,1
2022-12-24T18:20:47.228Z,1
2022-12-24T18:22:46.980Z,1
2022-12-24T18:24:47.206Z,1
2022-12-24T18:26:47.057Z,1
2022-12-24T18:28:50.341Z,1
2022-12-24T18:30:46.849Z,1
2022-12-24T18:32:47.254Z,1
2022-12-24T18:34:47.145Z,1
2022-12-24T18:36:51.254Z,1
2022-12-24T18:38:46.883Z,1
2022-12-24T18:40:50.142Z,1
2022-12-24T18:42:47.011Z,1
2022-12-24T18:44:46.985Z,1
2022-12-24T18:46:46.773Z,1
2022-12-24T18:48:47.290Z,1
2022-12-24T18:50:47.421Z,1
2022-12-24T18:52:47.283Z,1
2022-12-24T18:54:46.875Z,1
2022-12-24T18:56:49.989Z,1
2022-12-24T18:58:46.843Z,1
2022-12-24T19:00:46.958Z,1
2022-12-24T19:02:47.202Z,1
2022-12-24T19:04:46.880Z,1
2022-12-24T19:06:52.619Z,1
2022-12-24T19:10:50.150Z,1
2022-12-24T19:12:47.123Z,1
2022-12-24T19:14:50.450Z,1
2022-12-24T19:16:46.877Z,1
2022-12-24T19:18:49.961Z,1
2022-12-24T19:20:50.213Z,1
2022-12-24T19:22:47.067Z,1
2022-12-24T19:24:46.877Z,1
2022-12-24T19:26:46.991Z,1
2022-12-24T19:28:47.097Z,1
2022-12-24T19:30:53.253Z,1
2022-12-24T19:32:46.861Z,1
2022-12-24T19:34:46.889Z,1
2022-12-24T19:36:46.899Z,1
2022-12-24T19:38:47.356Z,1
2022-12-24T19:40:46.973Z,1
2022-12-24T19:42:50.441Z,1
2022-12-24T19:44:46.857Z,1
2022-12-24T19:46:46.991Z,1
2022-12-24T19:48:47.116Z,1
2022-12-24T19:50:46.866Z,1
2022-12-24T19:52:47.110Z,1
2022-12-24T19:54:47.271Z,1
2022-12-24T19:56:47.005Z,1
2022-12-24T19:58:47.272Z,1
2022-12-24T20:00:50.555Z,1
2022-12-24T20:02:47.291Z,1
2022-12-24T20:04:46.860Z,1
2022-12-24T20:06:46.913Z,1
2022-12-24T20:08:46.932Z,1
2022-12-24T20:10:50.576Z,1
2022-12-24T20:12:47.298Z,1
2022-12-24T20:14:46.969Z,1
2022-12-24T20:16:46.921Z,1
2022-12-24T20:18:46.876Z,1
2022-12-24T20:20:46.860Z,1
2022-12-24T20:22:47.115Z,1
2022-12-24T20:26:47.009Z,1
2022-12-24T20:28:53.355Z,1
2022-12-24T20:30:47.047Z,1
2022-12-24T20:32:47.128Z,1
2022-12-24T20:36:50.445Z,1
2022-12-24T20:38:46.800Z,1
2022-12-24T20:40:46.980Z,1
2022-12-24T20:42:50.540Z,1
2022-12-24T20:44:46.876Z,1
2022-12-24T20:46:53.418Z,1
2022-12-24T20:48:46.911Z,1
2022-12-24T20:50:53.177Z,1
2022-12-24T20:52:46.799Z,1
2022-12-24T20:54:46.916Z,1
2022-12-24T20:56:46.856Z,1
2022-12-24T20:58:47.135Z,1
2022-12-24T21:00:50.322Z,1
2022-12-24T21:02:47.185Z,1
2022-12-24T21:04:46.763Z,1
2022-12-24T21:06:47.335Z,1
2022-12-24T21:08:50.561Z,1
2022-12-24T21:10:46.783Z,1
2022-12-24T21:12:47.324Z,1
2022-12-24T21:14:47.279Z,1
2022-12-24T21:16:50.035Z,1
2022-12-24T21:18:50.539Z,1
2022-12-24T21:20:53.441Z,1
2022-12-24T21:22:50.014Z,1
2022-12-24T21:24:50.086Z,1
2022-12-24T21:26:46.999Z,1
2022-12-24T21:28:46.847Z,1
2022-12-24T21:30:47.094Z,1
2022-12-24T21:32:46.801Z,1
2022-12-24T21:34:46.812Z,1
2022-12-24T21:36:53.359Z,1
2022-12-24T21:38:50.315Z,1
2022-12-24T21:40:50.519Z,1
2022-12-24T21:42:50.244Z,1
2022-12-24T21:44:47.068Z,1
2022-12-24T21:46:47.183Z,1
2022-12-24T21:50:46.998Z,1
2022-12-24T21:52:47.687Z,1
2022-12-24T21:54:46.959Z,1
2022-12-24T21:56:47.085Z,1
2022-12-24T21:58:46.895Z,1
2022-12-24T22:02:53.764Z,1
2022-12-24T22:04:50.635Z,1
2022-12-24T22:06:46.888Z,1
2022-12-24T22:08:46.926Z,1
2022-12-24T22:10:50.453Z,1
2022-12-24T22:12:47.049Z,1
2022-12-24T22:14:50.487Z,1
2022-12-24T22:16:46.951Z,1
2022-12-24T22:18:47.171Z,1
2022-12-24T22:20:53.578Z,1
2022-12-24T22:22:53.572Z,1
2022-12-24T22:24:53.507Z,1
2022-12-24T22:26:46.888Z,1
2022-12-24T22:28:53.397Z,1
2022-12-24T22:30:46.888Z,1
2022-12-24T22:32:46.947Z,1
2022-12-24T22:34:46.925Z,1
2022-12-24T22:36:47.159Z,1
2022-12-24T22:38:46.927Z,1
2022-12-24T22:40:50.501Z,1
2022-12-24T22:42:46.884Z,1
2022-12-24T22:44:46.998Z,1
2022-12-24T22:46:46.996Z,1
2022-12-24T22:48:47.076Z,1
2022-12-24T22:50:47.070Z,1
2022-12-24T22:52:47.286Z,1
2022-12-24T22:54:50.825Z,1
2022-12-24T22:56:46.936Z,1
2022-12-24T22:58:50.086Z,1
2022-12-24T23:00:46.879Z,1
2022-12-24T23:02:50.507Z,1
2022-12-24T23:04:50.245Z,1
2022-12-24T23:06:47.177Z,1
2022-12-24T23:08:47.050Z,1
2022-12-24T23:10:46.881Z,1
2022-12-24T23:12:53.699Z,1
2022-12-24T23:14:46.928Z,1
2022-12-24T23:16:50.441Z,1
2022-12-24T23:18:47.032Z,1
2022-12-24T23:20:50.621Z,1
2022-12-24T23:22:50.493Z,1
2022-12-24T23:24:50.079Z,1
2022-12-24T23:26:46.952Z,1
2022-12-24T23:28:46.890Z,1
2022-12-24T23:30:47.010Z,1
2022-12-24T23:32:50.464Z,1
2022-12-24T23:34:47.042Z,1
2022-12-24T23:36:53.431Z,1
2022-12-24T23:38:47.228Z,1
2022-12-24T23:40:47.465Z,1
2022-12-24T23:42:50.036Z,1
2022-12-24T23:44:46.947Z,1
2022-12-24T23:46:47.033Z,1
2022-12-24T23:48:46.979Z,1
2022-12-24T23:50:46.948Z,1
2022-12-24T23:52:47.276Z,1
2022-12-24T23:56:50.514Z,1
2022-12-24T23:58:53.463Z,1
